Strona główna
METAR-TAF:

METAR-TAF

Lotnisko :

Tak, Tajlandia

Szerokość geograficzna: 16-53N, Długość geograficzna: 099-09E, wysokość: 121 m

METAR: brakujący

czas: 11:50 (04:50 UTC)

Prognoza

Raport powstał 5 godziny i 50 minut temu, godzina 23:00 UTC
Prognoza ważna od 30 godzina 00 UTC do 30 godzina 24 UTC
Wiatr 5 kt od zachód
Widzialność: 5000 m
zmętnienie

TAF: VTPT 292300Z 3000/3024 26005KT 5000 HZ NSC

Obserwacja i prognoza pogody dla ponad 4000 lotnisk (raport METAR i TAF).

Dostępne stacje oznaczono żółtymi i czerwonymi punktami na mapie.

Najedź kursorem aby zobaczyć nazwę stacji.

Kliknij aby zobaczyć obserwacje i prognozy pogody.

Aby zmienić mapę: kliknij na zielony przycisk z czarnym krzyżykiem, aby powiększyć; na zielony przycisk z myślnikiem, aby pomniejszyć; na zielone strzałki, aby przejść do map sąsiednich.


METAR-TAF: